sensor_id;sensor_type;location;lat;lon;timestamp;pressure;altitude;pressure_sealevel;temperature;humidity
8451;BME280;4262;50.980;13.892;2023-01-13T04:30:56;50809.38;;;-142.97;55.08
8451;BME280;4262;50.980;13.892;2023-01-13T04:33:23;50787.94;;;-142.97;55.13
8451;BME280;4262;50.980;13.892;2023-01-13T04:35:50;50836.69;;;-142.97;54.87
8451;BME280;4262;50.980;13.892;2023-01-13T04:38:19;50795.75;;;-142.97;55.20
8451;BME280;4262;50.980;13.892;2023-01-13T04:40:48;50809.38;;;-142.97;55.24
8451;BME280;4262;50.980;13.892;2023-01-13T04:43:15;50824.97;;;-142.97;54.89
8451;BME280;4262;50.980;13.892;2023-01-13T04:45:42;50799.63;;;-142.97;54.74
8451;BME280;4262;50.980;13.892;2023-01-13T04:48:10;50789.88;;;-142.97;54.83
8451;BME280;4262;50.980;13.892;2023-01-13T04:50:39;50821.09;;;-142.97;55.13
8451;BME280;4262;50.980;13.892;2023-01-13T04:53:06;50823.03;;;-142.97;54.83
8451;BME280;4262;50.980;13.892;2023-01-13T04:55:33;50836.69;;;-142.97;54.93
8451;BME280;4262;50.980;13.892;2023-01-13T04:58:01;50826.94;;;-142.97;54.70
8451;BME280;4262;50.980;13.892;2023-01-13T05:00:28;50836.69;;;-142.97;54.58
8451;BME280;4262;50.980;13.892;2023-01-13T05:02:56;50803.53;;;-142.97;54.75
8451;BME280;4262;50.980;13.892;2023-01-13T05:05:25;50836.69;;;-142.97;54.82
8451;BME280;4262;50.980;13.892;2023-01-13T05:07:52;50805.50;;;-142.97;54.60
8451;BME280;4262;50.980;13.892;2023-01-13T05:10:19;50817.19;;;-142.97;54.39
8451;BME280;4262;50.980;13.892;2023-01-13T05:12:45;50799.63;;;-142.97;54.73
8451;BME280;4262;50.980;13.892;2023-01-13T05:15:30;50813.28;;;-142.97;54.41
8451;BME280;4262;50.980;13.892;2023-01-13T05:18:15;50844.47;;;-142.97;54.69
8451;BME280;4262;50.980;13.892;2023-01-13T05:20:45;50838.63;;;-142.97;54.54
8451;BME280;4262;50.980;13.892;2023-01-13T05:23:14;50813.28;;;-142.97;54.59
8451;BME280;4262;50.980;13.892;2023-01-13T05:25:58;50838.63;;;-142.97;54.35
8451;BME280;4262;50.980;13.892;2023-01-13T05:28:30;50778.19;;;-142.97;54.67
8451;BME280;4262;50.980;13.892;2023-01-13T05:30:56;50813.28;;;-142.97;54.37
8451;BME280;4262;50.980;13.892;2023-01-13T05:33:23;50834.72;;;-142.97;54.12
8451;BME280;4262;50.980;13.892;2023-01-13T05:35:51;50865.94;;;-142.97;54.31
8451;BME280;4262;50.980;13.892;2023-01-13T05:38:18;50811.34;;;-142.97;54.44
8451;BME280;4262;50.980;13.892;2023-01-13T05:40:44;50807.44;;;-142.97;54.08
8451;BME280;4262;50.980;13.892;2023-01-13T05:43:31;50824.97;;;-142.97;54.16
8451;BME280;4262;50.980;13.892;2023-01-13T05:46:00;50823.03;;;-142.97;54.43
8451;BME280;4262;50.980;13.892;2023-01-13T05:48:29;50815.22;;;-142.97;54.58
8451;BME280;4262;50.980;13.892;2023-01-13T05:50:57;50819.13;;;-142.97;54.32
8451;BME280;4262;50.980;13.892;2023-01-13T05:53:27;50836.69;;;-142.97;54.43
8451;BME280;4262;50.980;13.892;2023-01-13T05:55:54;50832.78;;;-142.97;54.15
8451;BME280;4262;50.980;13.892;2023-01-13T05:58:24;50819.13;;;-142.97;54.15
8451;BME280;4262;50.980;13.892;2023-01-13T06:00:51;50799.63;;;-142.97;54.00
8451;BME280;4262;50.980;13.892;2023-01-13T06:03:18;50811.34;;;-142.97;54.09
8451;BME280;4262;50.980;13.892;2023-01-13T06:05:47;50817.19;;;-142.97;53.67
8451;BME280;4262;50.980;13.892;2023-01-13T06:08:16;50811.34;;;-142.97;53.93
8451;BME280;4262;50.980;13.892;2023-01-13T06:10:43;50848.38;;;-142.97;54.31
8451;BME280;4262;50.980;13.892;2023-01-13T06:13:10;50830.84;;;-142.97;54.17
8451;BME280;4262;50.980;13.892;2023-01-13T06:15:36;50797.69;;;-142.97;54.26
8451;BME280;4262;50.980;13.892;2023-01-13T06:18:04;50842.53;;;-142.97;54.53
8451;BME280;4262;50.980;13.892;2023-01-13T06:20:31;50793.78;;;-142.97;55.07
8451;BME280;4262;50.980;13.892;2023-01-13T06:22:59;50828.88;;;-142.97;55.20
8451;BME280;4262;50.980;13.892;2023-01-13T06:25:37;50836.69;;;-142.97;55.31
8451;BME280;4262;50.980;13.892;2023-01-13T06:28:05;50836.69;;;-142.97;55.74
8451;BME280;4262;50.980;13.892;2023-01-13T06:30:35;50844.47;;;-142.97;56.05
8451;BME280;4262;50.980;13.892;2023-01-13T06:33:07;50817.19;;;-142.97;56.63
8451;BME280;4262;50.980;13.892;2023-01-13T06:35:38;50830.84;;;-142.97;56.77
8451;BME280;4262;50.980;13.892;2023-01-13T06:38:08;50780.13;;;-142.97;57.26
8451;BME280;4262;50.980;13.892;2023-01-13T06:40:40;50821.09;;;-142.97;57.74
8451;BME280;4262;50.980;13.892;2023-01-13T06:43:09;50830.84;;;-142.97;57.43
8451;BME280;4262;50.980;13.892;2023-01-13T06:45:44;50809.38;;;-142.97;57.31
8451;BME280;4262;50.980;13.892;2023-01-13T06:48:12;50830.84;;;-142.97;57.11
8451;BME280;4262;50.980;13.892;2023-01-13T06:50:39;50801.59;;;-142.97;56.91
8451;BME280;4262;50.980;13.892;2023-01-13T06:53:06;50809.38;;;-142.97;57.04
8451;BME280;4262;50.980;13.892;2023-01-13T06:55:33;50846.44;;;-142.97;56.69
8451;BME280;4262;50.980;13.892;2023-01-13T06:58:00;50807.44;;;-142.97;57.02
8451;BME280;4262;50.980;13.892;2023-01-13T07:00:27;50787.94;;;-142.97;57.72
8451;BME280;4262;50.980;13.892;2023-01-13T07:03:04;50819.13;;;-142.97;57.86
8451;BME280;4262;50.980;13.892;2023-01-13T07:05:31;50801.59;;;-142.97;57.26
8451;BME280;4262;50.980;13.892;2023-01-13T07:07:58;50819.13;;;-142.97;57.70
8451;BME280;4262;50.980;13.892;2023-01-13T07:10:24;50846.44;;;-142.97;56.90
8451;BME280;4262;50.980;13.892;2023-01-13T07:12:51;50842.53;;;-142.97;57.17
8451;BME280;4262;50.980;13.892;2023-01-13T07:15:36;50826.94;;;-142.97;57.21
8451;BME280;4262;50.980;13.892;2023-01-13T07:18:03;50842.53;;;-142.97;57.24
8451;BME280;4262;50.980;13.892;2023-01-13T07:20:30;50828.88;;;-142.97;57.60
8451;BME280;4262;50.980;13.892;2023-01-13T07:22:56;50805.50;;;-142.97;58.22
8451;BME280;4262;50.980;13.892;2023-01-13T07:25:25;50805.50;;;-142.97;59.27
8451;BME280;4262;50.980;13.892;2023-01-13T07:27:51;50842.53;;;-142.97;58.91
8451;BME280;4262;50.980;13.892;2023-01-13T07:30:18;50815.22;;;-142.97;58.39
8451;BME280;4262;50.980;13.892;2023-01-13T07:32:46;50848.38;;;-142.97;58.13
8451;BME280;4262;50.980;13.892;2023-01-13T07:35:13;50862.03;;;-142.97;58.02
8451;BME280;4262;50.980;13.892;2023-01-13T07:37:43;50801.59;;;-142.97;57.91
8451;BME280;4262;50.980;13.892;2023-01-13T07:40:10;50826.94;;;-142.97;57.86
8451;BME280;4262;50.980;13.892;2023-01-13T07:42:38;50819.13;;;-142.97;58.49
8451;BME280;4262;50.980;13.892;2023-01-13T07:45:22;50828.88;;;-142.97;58.66
8451;BME280;4262;50.980;13.892;2023-01-13T07:47:51;50838.63;;;-142.97;58.47
8451;BME280;4262;50.980;13.892;2023-01-13T07:50:19;50778.19;;;-142.97;58.90
8451;BME280;4262;50.980;13.892;2023-01-13T07:52:46;50828.88;;;-142.97;59.14
8451;BME280;4262;50.980;13.892;2023-01-13T07:55:13;50787.94;;;-142.97;59.56
8451;BME280;4262;50.980;13.892;2023-01-13T07:57:40;50809.38;;;-142.97;59.47
8451;BME280;4262;50.980;13.892;2023-01-13T08:00:08;50797.69;;;-142.97;59.76
8451;BME280;4262;50.980;13.892;2023-01-13T08:02:35;50830.84;;;-142.97;59.55
8451;BME280;4262;50.980;13.892;2023-01-13T08:05:04;50817.19;;;-142.97;59.43
8451;BME280;4262;50.980;13.892;2023-01-13T08:07:32;50824.97;;;-142.97;59.77
8451;BME280;4262;50.980;13.892;2023-01-13T08:10:00;50819.13;;;-142.97;59.87
8451;BME280;4262;50.980;13.892;2023-01-13T08:12:27;50826.94;;;-142.97;60.50
8451;BME280;4262;50.980;13.892;2023-01-13T08:15:11;50774.28;;;-142.97;59.35
8451;BME280;4262;50.980;13.892;2023-01-13T08:17:38;50832.78;;;-142.97;59.06
8451;BME280;4262;50.980;13.892;2023-01-13T08:20:07;50828.88;;;-142.97;58.93
8451;BME280;4262;50.980;13.892;2023-01-13T08:22:34;50784.03;;;-142.97;57.90
8451;BME280;4262;50.980;13.892;2023-01-13T08:25:03;50819.13;;;-142.97;57.84
8451;BME280;4262;50.980;13.892;2023-01-13T08:27:30;50811.34;;;-142.97;57.79
8451;BME280;4262;50.980;13.892;2023-01-13T08:29:58;50817.19;;;-142.97;57.73
8451;BME280;4262;50.980;13.892;2023-01-13T08:32:24;50774.28;;;-142.97;58.10
8451;BME280;4262;50.980;13.892;2023-01-13T08:34:51;50824.97;;;-142.97;57.55
8451;BME280;4262;50.980;13.892;2023-01-13T08:37:19;50858.13;;;-142.97;56.47
8451;BME280;4262;50.980;13.892;2023-01-13T08:39:46;50821.09;;;-142.97;54.72
8451;BME280;4262;50.980;13.892;2023-01-13T08:42:13;50824.97;;;-142.97;54.58
8451;BME280;4262;50.980;13.892;2023-01-13T08:44:41;50836.69;;;-142.97;53.45
8451;BME280;4262;50.980;13.892;2023-01-13T08:47:08;50813.28;;;-142.97;52.53
8451;BME280;4262;50.980;13.892;2023-01-13T08:49:34;50813.28;;;-142.97;52.36
8451;BME280;4262;50.980;13.892;2023-01-13T08:52:01;50793.78;;;-142.97;51.52
8451;BME280;4262;50.980;13.892;2023-01-13T08:54:30;50815.22;;;-142.97;51.56
8451;BME280;4262;50.980;13.892;2023-01-13T08:56:57;50785.97;;;-142.97;51.49
8451;BME280;4262;50.980;13.892;2023-01-13T08:59:24;50764.53;;;-142.97;51.23
8451;BME280;4262;50.980;13.892;2023-01-13T09:01:50;50803.53;;;-142.97;50.86
8451;BME280;4262;50.980;13.892;2023-01-13T09:04:19;50791.84;;;-142.97;50.62
8451;BME280;4262;50.980;13.892;2023-01-13T09:06:48;50824.97;;;-142.97;50.42
8451;BME280;4262;50.980;13.892;2023-01-13T09:09:15;50799.63;;;-142.97;50.49
8451;BME280;4262;50.980;13.892;2023-01-13T09:11:45;50809.38;;;-142.97;50.48
8451;BME280;4262;50.980;13.892;2023-01-13T09:14:32;50793.78;;;-142.97;51.54
8451;BME280;4262;50.980;13.892;2023-01-13T09:16:59;50807.44;;;-142.97;52.02
8451;BME280;4262;50.980;13.892;2023-01-13T09:19:26;50778.19;;;-142.97;52.63
8451;BME280;4262;50.980;13.892;2023-01-13T09:21:54;50789.88;;;-142.97;51.97
8451;BME280;4262;50.980;13.892;2023-01-13T09:24:23;50770.38;;;-142.97;52.45
8451;BME280;4262;50.980;13.892;2023-01-13T09:27:14;50754.78;;;-142.97;51.39
8451;BME280;4262;50.980;13.892;2023-01-13T09:29:41;50799.63;;;-142.97;51.69
8451;BME280;4262;50.980;13.892;2023-01-13T09:32:10;50762.59;;;-142.97;51.66
8451;BME280;4262;50.980;13.892;2023-01-13T09:34:36;50776.25;;;-142.97;51.32
8451;BME280;4262;50.980;13.892;2023-01-13T09:37:22;50776.25;;;-142.97;51.49
8451;BME280;4262;50.980;13.892;2023-01-13T09:39:49;50774.28;;;-142.97;51.14
8451;BME280;4262;50.980;13.892;2023-01-13T09:42:23;50787.94;;;-142.97;50.63
8451;BME280;4262;50.980;13.892;2023-01-13T09:45:13;50809.38;;;-142.97;51.27
8451;BME280;4262;50.980;13.892;2023-01-13T09:47:44;50782.09;;;-142.97;51.81
8451;BME280;4262;50.980;13.892;2023-01-13T09:50:28;50823.03;;;-142.97;52.26
8451;BME280;4262;50.980;13.892;2023-01-13T09:53:00;50826.94;;;-142.97;55.99
8451;BME280;4262;50.980;13.892;2023-01-13T09:55:30;50784.03;;;-142.97;61.10
8451;BME280;4262;50.980;13.892;2023-01-13T09:58:01;50826.94;;;-142.97;65.34
8451;BME280;4262;50.980;13.892;2023-01-13T10:00:34;50778.19;;;-142.97;69.28
8451;BME280;4262;50.980;13.892;2023-01-13T10:03:13;50815.22;;;-142.97;70.26
8451;BME280;4262;50.980;13.892;2023-01-13T10:05:47;50787.94;;;-142.97;71.50
8451;BME280;4262;50.980;13.892;2023-01-13T10:08:18;50815.22;;;-142.97;71.75
8451;BME280;4262;50.980;13.892;2023-01-13T10:10:49;50778.19;;;-142.97;72.11
8451;BME280;4262;50.980;13.892;2023-01-13T10:13:22;50819.13;;;-142.97;71.38
8451;BME280;4262;50.980;13.892;2023-01-13T10:15:58;50823.03;;;-142.97;71.18
8451;BME280;4262;50.980;13.892;2023-01-13T10:18:36;50819.13;;;-142.97;70.33
8451;BME280;4262;50.980;13.892;2023-01-13T10:21:18;50803.53;;;-142.97;70.04
8451;BME280;4262;50.980;13.892;2023-01-13T10:23:56;50805.50;;;-142.97;68.44
8451;BME280;4262;50.980;13.892;2023-01-13T10:26:42;50834.72;;;-142.97;67.30
8451;BME280;4262;50.980;13.892;2023-01-13T10:29:19;50811.34;;;-142.97;67.86
8451;BME280;4262;50.980;13.892;2023-01-13T10:31:49;50789.88;;;-142.97;67.28
8451;BME280;4262;50.980;13.892;2023-01-13T10:34:15;50793.78;;;-142.97;65.41
8451;BME280;4262;50.980;13.892;2023-01-13T10:36:53;50803.53;;;-142.97;65.21
8451;BME280;4262;50.980;13.892;2023-01-13T10:39:22;50774.28;;;-142.97;65.44
8451;BME280;4262;50.980;13.892;2023-01-13T10:41:59;50785.97;;;-142.97;64.96
8451;BME280;4262;50.980;13.892;2023-01-13T10:44:27;50811.34;;;-142.97;63.72
8451;BME280;4262;50.980;13.892;2023-01-13T10:46:55;50785.97;;;-142.97;63.56
8451;BME280;4262;50.980;13.892;2023-01-13T10:49:27;50807.44;;;-142.97;63.59
8451;BME280;4262;50.980;13.892;2023-01-13T10:51:55;50821.09;;;-142.97;62.45
8451;BME280;4262;50.980;13.892;2023-01-13T10:54:25;50795.75;;;-142.97;62.39
8451;BME280;4262;50.980;13.892;2023-01-13T10:57:13;50795.75;;;-142.97;61.90
8451;BME280;4262;50.980;13.892;2023-01-13T10:59:41;50844.47;;;-142.97;61.73
8451;BME280;4262;50.980;13.892;2023-01-13T11:02:23;50819.13;;;-142.97;61.77
8451;BME280;4262;50.980;13.892;2023-01-13T11:05:07;50784.03;;;-142.97;61.13
8451;BME280;4262;50.980;13.892;2023-01-13T11:07:38;50768.44;;;-142.97;60.38
8451;BME280;4262;50.980;13.892;2023-01-13T11:10:18;50805.50;;;-142.97;61.03
8451;BME280;4262;50.980;13.892;2023-01-13T11:12:52;50815.22;;;-142.97;60.43
8451;BME280;4262;50.980;13.892;2023-01-13T11:15:33;50803.53;;;-142.97;61.34
8451;BME280;4262;50.980;13.892;2023-01-13T11:18:07;50799.63;;;-142.97;60.72
8451;BME280;4262;50.980;13.892;2023-01-13T11:20:38;50795.75;;;-142.97;60.31
8451;BME280;4262;50.980;13.892;2023-01-13T11:23:13;50830.84;;;-142.97;60.96
8451;BME280;4262;50.980;13.892;2023-01-13T11:25:44;50762.59;;;-142.97;61.13
8451;BME280;4262;50.980;13.892;2023-01-13T11:28:23;50809.38;;;-142.97;60.23
8451;BME280;4262;50.980;13.892;2023-01-13T11:31:04;50817.19;;;-142.97;60.13
8451;BME280;4262;50.980;13.892;2023-01-13T11:33:39;50791.84;;;-142.97;60.44
8451;BME280;4262;50.980;13.892;2023-01-13T11:36:11;50801.59;;;-142.97;60.01
8451;BME280;4262;50.980;13.892;2023-01-13T11:38:43;50819.13;;;-142.97;60.17
8451;BME280;4262;50.980;13.892;2023-01-13T11:41:19;50793.78;;;-142.97;60.41
8451;BME280;4262;50.980;13.892;2023-01-13T11:43:51;50811.34;;;-142.97;60.25
8451;BME280;4262;50.980;13.892;2023-01-13T11:46:25;50830.84;;;-142.97;59.64
8451;BME280;4262;50.980;13.892;2023-01-13T11:48:53;50772.34;;;-142.97;59.36
8451;BME280;4262;50.980;13.892;2023-01-13T11:51:32;50832.78;;;-142.97;59.50
8451;BME280;4262;50.980;13.892;2023-01-13T11:54:27;50782.09;;;-142.97;59.31
8451;BME280;4262;50.980;13.892;2023-01-13T11:57:10;50836.69;;;-142.97;59.02
8451;BME280;4262;50.980;13.892;2023-01-13T11:59:59;50784.03;;;-142.97;59.11
8451;BME280;4262;50.980;13.892;2023-01-13T12:02:49;50780.13;;;-142.97;59.02
8451;BME280;4262;50.980;13.892;2023-01-13T12:05:22;50803.53;;;-142.97;58.26
8451;BME280;4262;50.980;13.892;2023-01-13T12:08:03;50813.28;;;-142.97;58.24
8451;BME280;4262;50.980;13.892;2023-01-13T12:10:43;50809.38;;;-142.97;57.77
8451;BME280;4262;50.980;13.892;2023-01-13T12:13:23;50782.09;;;-142.97;57.43
8451;BME280;4262;50.980;13.892;2023-01-13T12:16:00;50785.97;;;-142.97;57.07
8451;BME280;4262;50.980;13.892;2023-01-13T12:18:54;50795.75;;;-142.97;55.93
8451;BME280;4262;50.980;13.892;2023-01-13T12:21:27;50811.34;;;-142.97;56.62
8451;BME280;4262;50.980;13.892;2023-01-13T12:24:03;50782.09;;;-142.97;57.09
8451;BME280;4262;50.980;13.892;2023-01-13T12:26:36;50805.50;;;-142.97;56.48
8451;BME280;4262;50.980;13.892;2023-01-13T12:29:06;50731.38;;;-142.97;56.43
8451;BME280;4262;50.980;13.892;2023-01-13T12:31:37;50723.59;;;-142.97;53.51
8451;BME280;4262;50.980;13.892;2023-01-13T12:34:22;50538.34;;;-142.97;50.62
8451;BME280;4262;50.980;13.892;2023-01-13T12:37:01;50754.78;;;-142.97;48.01
8451;BME280;4262;50.980;13.892;2023-01-13T12:39:39;50817.19;;;-142.97;48.75
8451;BME280;4262;50.980;13.892;2023-01-13T12:42:13;50780.13;;;-142.97;50.01
8451;BME280;4262;50.980;13.892;2023-01-13T12:45:21;50760.63;;;-142.97;51.86
8451;BME280;4262;50.980;13.892;2023-01-13T12:47:49;50774.28;;;-142.97;52.18
8451;BME280;4262;50.980;13.892;2023-01-13T12:50:37;50780.13;;;-142.97;51.44
8451;BME280;4262;50.980;13.892;2023-01-13T12:53:31;50645.59;;;-142.97;50.43
8451;BME280;4262;50.980;13.892;2023-01-13T13:02:35;50793.78;;;-142.97;50.11
8451;BME280;4262;50.980;13.892;2023-01-13T13:05:37;50805.50;;;-142.97;50.60
8451;BME280;4262;50.980;13.892;2023-01-13T13:08:14;50785.97;;;-142.97;51.03
8451;BME280;4262;50.980;13.892;2023-01-13T13:10:54;50774.28;;;-142.97;51.41
8451;BME280;4262;50.980;13.892;2023-01-13T13:13:41;50758.69;;;-142.97;50.71
8451;BME280;4262;50.980;13.892;2023-01-13T13:19:42;50589.06;;;-142.97;46.38
8451;BME280;4262;50.980;13.892;2023-01-13T13:22:36;50587.09;;;-142.97;45.92
8451;BME280;4262;50.980;13.892;2023-01-13T13:25:24;50704.09;;;-142.97;46.03
8451;BME280;4262;50.980;13.892;2023-01-13T13:28:06;50665.09;;;-142.97;46.53
8451;BME280;4262;50.980;13.892;2023-01-13T13:30:36;50591.00;;;-142.97;46.06
8451;BME280;4262;50.980;13.892;2023-01-13T13:33:15;50610.50;;;-142.97;45.64
8451;BME280;4262;50.980;13.892;2023-01-13T13:36:01;50606.59;;;-142.97;44.07
8451;BME280;4262;50.980;13.892;2023-01-13T13:38:49;50649.50;;;-142.97;44.22
8451;BME280;4262;50.980;13.892;2023-01-13T13:41:35;50669.00;;;-142.97;43.61
8451;BME280;4262;50.980;13.892;2023-01-13T13:44:37;50633.91;;;-142.97;44.41
8451;BME280;4262;50.980;13.892;2023-01-13T13:47:22;50711.88;;;-142.97;44.20
8451;BME280;4262;50.980;13.892;2023-01-13T13:49:51;50793.78;;;-142.97;45.83
8451;BME280;4262;50.980;13.892;2023-01-13T13:52:22;50709.94;;;-142.97;45.69
8451;BME280;4262;50.980;13.892;2023-01-13T13:54:57;50669.00;;;-142.97;44.34
8451;BME280;4262;50.980;13.892;2023-01-13T13:57:31;50659.25;;;-142.97;44.21
8451;BME280;4262;50.980;13.892;2023-01-13T13:59:59;50717.75;;;-142.97;43.51
8451;BME280;4262;50.980;13.892;2023-01-13T14:02:37;50748.94;;;-142.97;44.13
8451;BME280;4262;50.980;13.892;2023-01-13T14:05:16;50819.13;;;-142.97;44.96
8451;BME280;4262;50.980;13.892;2023-01-13T14:07:46;50764.53;;;-142.97;45.33
8451;BME280;4262;50.980;13.892;2023-01-13T14:10:19;50789.88;;;-142.97;45.98
8451;BME280;4262;50.980;13.892;2023-01-13T14:12:47;50811.34;;;-142.97;46.54
8451;BME280;4262;50.980;13.892;2023-01-13T14:15:30;50785.97;;;-142.97;48.05
8451;BME280;4262;50.980;13.892;2023-01-13T14:17:59;50752.84;;;-142.97;48.27
8451;BME280;4262;50.980;13.892;2023-01-13T14:20:27;50784.03;;;-142.97;48.98
8451;BME280;4262;50.980;13.892;2023-01-13T14:22:54;50770.38;;;-142.97;49.06
8451;BME280;4262;50.980;13.892;2023-01-13T14:25:29;50768.44;;;-142.97;49.10
8451;BME280;4262;50.980;13.892;2023-01-13T14:28:08;50752.84;;;-142.97;49.12
8451;BME280;4262;50.980;13.892;2023-01-13T14:30:40;50828.88;;;-142.97;49.52
8451;BME280;4262;50.980;13.892;2023-01-13T14:33:12;50793.78;;;-142.97;49.67
8451;BME280;4262;50.980;13.892;2023-01-13T14:38:49;50817.19;;;-142.97;49.56
8451;BME280;4262;50.980;13.892;2023-01-13T14:41:20;50789.88;;;-142.97;49.93
8451;BME280;4262;50.980;13.892;2023-01-13T14:43:49;50817.19;;;-142.97;50.28
8451;BME280;4262;50.980;13.892;2023-01-13T14:46:20;50840.59;;;-142.97;50.16
8451;BME280;4262;50.980;13.892;2023-01-13T14:48:52;50784.03;;;-142.97;50.57
8451;BME280;4262;50.980;13.892;2023-01-13T14:51:26;50809.38;;;-142.97;50.98
8451;BME280;4262;50.980;13.892;2023-01-13T14:53:53;50782.09;;;-142.97;51.21
8451;BME280;4262;50.980;13.892;2023-01-13T14:56:43;50807.44;;;-142.97;51.37
8451;BME280;4262;50.980;13.892;2023-01-13T14:59:31;50776.25;;;-142.97;51.97
8451;BME280;4262;50.980;13.892;2023-01-13T15:01:58;50817.19;;;-142.97;51.45
8451;BME280;4262;50.980;13.892;2023-01-13T15:04:31;50787.94;;;-142.97;51.98
8451;BME280;4262;50.980;13.892;2023-01-13T15:06:58;50815.22;;;-142.97;52.23
8451;BME280;4262;50.980;13.892;2023-01-13T15:09:27;50782.09;;;-142.97;52.11
8451;BME280;4262;50.980;13.892;2023-01-13T15:11:55;50791.84;;;-142.97;52.62
8451;BME280;4262;50.980;13.892;2023-01-13T15:14:27;50785.97;;;-142.97;52.33
8451;BME280;4262;50.980;13.892;2023-01-13T15:16:56;50797.69;;;-142.97;52.48
8451;BME280;4262;50.980;13.892;2023-01-13T15:19:22;50801.59;;;-142.97;52.60
8451;BME280;4262;50.980;13.892;2023-01-13T15:21:49;50809.38;;;-142.97;52.26
8451;BME280;4262;50.980;13.892;2023-01-13T15:24:17;50803.53;;;-142.97;52.55
8451;BME280;4262;50.980;13.892;2023-01-13T15:26:44;50807.44;;;-142.97;52.62
8451;BME280;4262;50.980;13.892;2023-01-13T15:29:13;50807.44;;;-142.97;52.67
8451;BME280;4262;50.980;13.892;2023-01-13T15:31:40;50789.88;;;-142.97;52.46
8451;BME280;4262;50.980;13.892;2023-01-13T15:34:06;50793.78;;;-142.97;52.56
8451;BME280;4262;50.980;13.892;2023-01-13T15:36:34;50809.38;;;-142.97;52.41
8451;BME280;4262;50.980;13.892;2023-01-13T15:39:02;50784.03;;;-142.97;53.60
8451;BME280;4262;50.980;13.892;2023-01-13T15:41:28;50789.88;;;-142.97;53.99
8451;BME280;4262;50.980;13.892;2023-01-13T15:44:15;50803.53;;;-142.97;54.50
8451;BME280;4262;50.980;13.892;2023-01-13T15:47:01;50809.38;;;-142.97;55.27
8451;BME280;4262;50.980;13.892;2023-01-13T15:49:33;50780.13;;;-142.97;54.94
8451;BME280;4262;50.980;13.892;2023-01-13T15:52:02;50778.19;;;-142.97;55.35
8451;BME280;4262;50.980;13.892;2023-01-13T15:54:28;50776.25;;;-142.97;55.09
8451;BME280;4262;50.980;13.892;2023-01-13T15:56:56;50772.34;;;-142.97;55.28
8451;BME280;4262;50.980;13.892;2023-01-13T15:59:26;50784.03;;;-142.97;55.30
8451;BME280;4262;50.980;13.892;2023-01-13T16:01:53;50764.53;;;-142.97;55.18
8451;BME280;4262;50.980;13.892;2023-01-13T16:04:20;50780.13;;;-142.97;54.81
8451;BME280;4262;50.980;13.892;2023-01-13T16:06:46;50840.59;;;-142.97;55.03
8451;BME280;4262;50.980;13.892;2023-01-13T16:09:13;50793.78;;;-142.97;54.49
8451;BME280;4262;50.980;13.892;2023-01-13T16:11:41;50793.78;;;-142.97;53.88
8451;BME280;4262;50.980;13.892;2023-01-13T16:14:08;50791.84;;;-142.97;54.20
8451;BME280;4262;50.980;13.892;2023-01-13T16:16:37;50793.78;;;-142.97;54.17
8451;BME280;4262;50.980;13.892;2023-01-13T16:19:03;50787.94;;;-142.97;54.17
8451;BME280;4262;50.980;13.892;2023-01-13T16:21:30;50809.38;;;-142.97;54.46
8451;BME280;4262;50.980;13.892;2023-01-13T16:23:57;50832.78;;;-142.97;54.89
8451;BME280;4262;50.980;13.892;2023-01-13T16:26:25;50764.53;;;-142.97;55.16
8451;BME280;4262;50.980;13.892;2023-01-13T16:28:55;50774.28;;;-142.97;55.80
8451;BME280;4262;50.980;13.892;2023-01-13T16:31:24;50807.44;;;-142.97;56.00
8451;BME280;4262;50.980;13.892;2023-01-13T16:33:52;50793.78;;;-142.97;56.22
8451;BME280;4262;50.980;13.892;2023-01-13T16:36:20;50797.69;;;-142.97;56.41
8451;BME280;4262;50.980;13.892;2023-01-13T16:38:48;50784.03;;;-142.97;56.17
8451;BME280;4262;50.980;13.892;2023-01-13T16:41:16;50793.78;;;-142.97;56.73
8451;BME280;4262;50.980;13.892;2023-01-13T16:43:44;50791.84;;;-142.97;57.19
8451;BME280;4262;50.980;13.892;2023-01-13T16:46:22;50823.03;;;-142.97;57.36
8451;BME280;4262;50.980;13.892;2023-01-13T16:48:53;50807.44;;;-142.97;57.67
8451;BME280;4262;50.980;13.892;2023-01-13T16:51:21;50840.59;;;-142.97;57.52
8451;BME280;4262;50.980;13.892;2023-01-13T16:53:48;50807.44;;;-142.97;57.84
8451;BME280;4262;50.980;13.892;2023-01-13T16:56:25;50795.75;;;-142.97;58.48
8451;BME280;4262;50.980;13.892;2023-01-13T16:58:53;50780.13;;;-142.97;58.72
8451;BME280;4262;50.980;13.892;2023-01-13T17:01:22;50813.28;;;-142.97;58.82
8451;BME280;4262;50.980;13.892;2023-01-13T17:03:49;50807.44;;;-142.97;59.01
8451;BME280;4262;50.980;13.892;2023-01-13T17:06:21;50780.13;;;-142.97;58.81
8451;BME280;4262;50.980;13.892;2023-01-13T17:08:49;50799.63;;;-142.97;58.53
8451;BME280;4262;50.980;13.892;2023-01-13T17:11:18;50780.13;;;-142.97;58.30
8451;BME280;4262;50.980;13.892;2023-01-13T17:13:45;50801.59;;;-142.97;58.72
8451;BME280;4262;50.980;13.892;2023-01-13T17:16:16;50819.13;;;-142.97;58.75
8451;BME280;4262;50.980;13.892;2023-01-13T17:18:44;50780.13;;;-142.97;58.83
8451;BME280;4262;50.980;13.892;2023-01-13T17:21:11;50795.75;;;-142.97;58.97
8451;BME280;4262;50.980;13.892;2023-01-13T17:23:41;50758.69;;;-142.97;59.38
8451;BME280;4262;50.980;13.892;2023-01-13T17:26:26;50799.63;;;-142.97;58.56
8451;BME280;4262;50.980;13.892;2023-01-13T17:28:53;50797.69;;;-142.97;56.72
8451;BME280;4262;50.980;13.892;2023-01-13T17:31:20;50782.09;;;-142.97;56.55
8451;BME280;4262;50.980;13.892;2023-01-13T17:33:47;50793.78;;;-142.97;55.58
8451;BME280;4262;50.980;13.892;2023-01-13T17:36:15;50785.97;;;-142.97;55.13
8451;BME280;4262;50.980;13.892;2023-01-13T17:38:43;50758.69;;;-142.97;53.85
8451;BME280;4262;50.980;13.892;2023-01-13T17:41:10;50799.63;;;-142.97;52.98
8451;BME280;4262;50.980;13.892;2023-01-13T17:43:37;50787.94;;;-142.97;52.88
8451;BME280;4262;50.980;13.892;2023-01-13T17:46:07;50807.44;;;-142.97;52.50
8451;BME280;4262;50.980;13.892;2023-01-13T17:48:33;50774.28;;;-142.97;52.21
8451;BME280;4262;50.980;13.892;2023-01-13T17:51:00;50784.03;;;-142.97;52.46
8451;BME280;4262;50.980;13.892;2023-01-13T17:53:29;50815.22;;;-142.97;52.38
8451;BME280;4262;50.980;13.892;2023-01-13T17:55:58;50764.53;;;-142.97;52.43
8451;BME280;4262;50.980;13.892;2023-01-13T17:58:25;50784.03;;;-142.97;52.16